sensor_id;sensor_type;location;lat;lon;timestamp;pressure;altitude;pressure_sealevel;temperature;humidity
71903;BME280;59778;50.310;18.780;2023-03-01T00:09:16;100085.25;;;-2.00;82.38
71903;BME280;59778;50.310;18.780;2023-03-01T00:24:38;100079.06;;;-2.01;81.84
71903;BME280;59778;50.310;18.780;2023-03-01T00:40:00;100092.53;;;-2.19;82.28
71903;BME280;59778;50.310;18.780;2023-03-01T00:55:23;100075.00;;;-2.56;83.50
71903;BME280;59778;50.310;18.780;2023-03-01T01:10:45;100061.56;;;-2.53;83.86
71903;BME280;59778;50.310;18.780;2023-03-01T01:26:12;100057.44;;;-2.76;84.38
71903;BME280;59778;50.310;18.780;2023-03-01T01:41:34;100049.97;;;-2.85;84.60
71903;BME280;59778;50.310;18.780;2023-03-01T01:57:00;100025.41;;;-2.73;84.74
71903;BME280;59778;50.310;18.780;2023-03-01T02:12:24;100023.69;;;-2.91;84.04
71903;BME280;59778;50.310;18.780;2023-03-01T02:27:57;100022.06;;;-2.94;84.64
71903;BME280;59778;50.310;18.780;2023-03-01T02:43:21;100037.59;;;-3.72;90.00
71903;BME280;59778;50.310;18.780;2023-03-01T02:58:44;100022.56;;;-3.37;87.82
71903;BME280;59778;50.310;18.780;2023-03-01T03:14:10;100023.94;;;-3.47;88.10
71903;BME280;59778;50.310;18.780;2023-03-01T03:29:33;100000.13;;;-3.32;85.92
71903;BME280;59778;50.310;18.780;2023-03-01T03:44:57;99993.41;;;-3.21;85.32
71903;BME280;59778;50.310;18.780;2023-03-01T04:00:20;99996.22;;;-3.76;88.22
71903;BME280;59778;50.310;18.780;2023-03-01T04:15:42;99997.13;;;-3.77;88.28
71903;BME280;59778;50.310;18.780;2023-03-01T04:31:06;100006.03;;;-3.78;88.30
71903;BME280;59778;50.310;18.780;2023-03-01T04:46:33;99995.25;;;-3.75;86.58
71903;BME280;59778;50.310;18.780;2023-03-01T05:01:56;99977.97;;;-4.01;88.52
71903;BME280;59778;50.310;18.780;2023-03-01T05:17:17;99977.78;;;-3.62;85.74
71903;BME280;59778;50.310;18.780;2023-03-01T05:32:44;99965.38;;;-3.61;84.96
71903;BME280;59778;50.310;18.780;2023-03-01T05:48:06;99983.22;;;-3.99;86.49
71903;BME280;59778;50.310;18.780;2023-03-01T06:03:28;99991.03;;;-3.79;87.92
71903;BME280;59778;50.310;18.780;2023-03-01T06:18:49;99995.44;;;-3.44;87.96
71903;BME280;59778;50.310;18.780;2023-03-01T06:34:10;100001.69;;;-3.10;90.24
71903;BME280;59778;50.310;18.780;2023-03-01T06:49:34;99984.56;;;-2.39;87.13
71903;BME280;59778;50.310;18.780;2023-03-01T07:04:55;99988.44;;;-1.52;87.40
71903;BME280;59778;50.310;18.780;2023-03-01T07:20:18;99979.47;;;-1.35;86.29
71903;BME280;59778;50.310;18.780;2023-03-01T07:35:39;99965.94;;;-0.60;85.75
71903;BME280;59778;50.310;18.780;2023-03-01T07:51:02;99956.75;;;-0.14;81.69
71903;BME280;59778;50.310;18.780;2023-03-01T08:06:24;99949.47;;;0.81;76.94
71903;BME280;59778;50.310;18.780;2023-03-01T08:21:45;99944.16;;;1.81;72.63
71903;BME280;59778;50.310;18.780;2023-03-01T08:37:07;99928.41;;;2.71;66.62
71903;BME280;59778;50.310;18.780;2023-03-01T08:52:28;99922.66;;;3.22;63.94
71903;BME280;59778;50.310;18.780;2023-03-01T09:07:51;99912.59;;;4.02;58.50
71903;BME280;59778;50.310;18.780;2023-03-01T09:23:12;99911.00;;;4.74;57.57
71903;BME280;59778;50.310;18.780;2023-03-01T09:38:34;99900.38;;;4.41;54.16
71903;BME280;59778;50.310;18.780;2023-03-01T09:53:55;99899.91;;;4.88;55.06
71903;BME280;59778;50.310;18.780;2023-03-01T10:09:19;99885.75;;;5.47;52.69
71903;BME280;59778;50.310;18.780;2023-03-01T10:24:42;99877.75;;;6.25;51.60
71903;BME280;59778;50.310;18.780;2023-03-01T10:40:09;99869.97;;;5.73;48.95
71903;BME280;59778;50.310;18.780;2023-03-01T10:55:35;99853.06;;;5.70;48.62
71903;BME280;59778;50.310;18.780;2023-03-01T11:26:36;99816.72;;;7.91;43.65
71903;BME280;59778;50.310;18.780;2023-03-01T11:42:18;99818.03;;;7.59;42.79
71903;BME280;59778;50.310;18.780;2023-03-01T12:29:31;99774.16;;;7.93;43.93
71903;BME280;59778;50.310;18.780;2023-03-01T13:00:30;99721.63;;;9.74;39.67
71903;BME280;59778;50.310;18.780;2023-03-01T13:15:55;99708.38;;;8.79;37.34
71903;BME280;59778;50.310;18.780;2023-03-01T13:46:38;99688.44;;;9.30;35.69
71903;BME280;59778;50.310;18.780;2023-03-01T14:02:00;99670.44;;;9.79;34.04
71903;BME280;59778;50.310;18.780;2023-03-01T14:33:30;99654.47;;;9.02;30.92
71903;BME280;59778;50.310;18.780;2023-03-01T14:49:17;99642.81;;;8.68;30.22
71903;BME280;59778;50.310;18.780;2023-03-01T15:04:41;99647.91;;;8.19;33.05
71903;BME280;59778;50.310;18.780;2023-03-01T15:20:06;99649.03;;;8.60;34.01
71903;BME280;59778;50.310;18.780;2023-03-01T15:35:45;99634.44;;;8.01;35.92
71903;BME280;59778;50.310;18.780;2023-03-01T15:51:11;99637.03;;;7.50;38.63
71903;BME280;59778;50.310;18.780;2023-03-01T16:06:34;99646.59;;;6.99;37.05
71903;BME280;59778;50.310;18.780;2023-03-01T16:21:57;99656.75;;;6.04;41.29
71903;BME280;59778;50.310;18.780;2023-03-01T16:37:19;99667.81;;;4.75;44.99
71903;BME280;59778;50.310;18.780;2023-03-01T16:52:40;99670.13;;;3.98;45.55
71903;BME280;59778;50.310;18.780;2023-03-01T17:08:01;99682.22;;;3.51;49.28
71903;BME280;59778;50.310;18.780;2023-03-01T17:23:24;99691.50;;;3.15;51.58
71903;BME280;59778;50.310;18.780;2023-03-01T17:38:47;99692.13;;;3.08;52.43
71903;BME280;59778;50.310;18.780;2023-03-01T17:54:09;99698.13;;;3.00;52.66
71903;BME280;59778;50.310;18.780;2023-03-01T18:09:30;99674.72;;;2.69;55.29
71903;BME280;59778;50.310;18.780;2023-03-01T18:24:52;99691.44;;;2.17;56.76
71903;BME280;59778;50.310;18.780;2023-03-01T18:40:13;99695.31;;;1.67;59.76
71903;BME280;59778;50.310;18.780;2023-03-01T18:55:36;99676.88;;;1.51;60.40
71903;BME280;59778;50.310;18.780;2023-03-01T19:11:02;99684.78;;;1.18;60.51
71903;BME280;59778;50.310;18.780;2023-03-01T19:26:26;99682.44;;;0.77;63.08
71903;BME280;59778;50.310;18.780;2023-03-01T19:41:49;99687.22;;;0.84;63.98
71903;BME280;59778;50.310;18.780;2023-03-01T19:57:10;99667.00;;;0.57;65.67
71903;BME280;59778;50.310;18.780;2023-03-01T20:12:36;99691.50;;;0.38;66.19
71903;BME280;59778;50.310;18.780;2023-03-01T20:28:00;99696.19;;;-0.04;66.21
71903;BME280;59778;50.310;18.780;2023-03-01T20:43:22;99696.03;;;-0.53;69.65
71903;BME280;59778;50.310;18.780;2023-03-01T20:58:43;99683.38;;;-0.36;67.33
71903;BME280;59778;50.310;18.780;2023-03-01T21:14:05;99680.94;;;-0.14;68.65
71903;BME280;59778;50.310;18.780;2023-03-01T21:29:26;99680.28;;;-0.18;69.44
71903;BME280;59778;50.310;18.780;2023-03-01T21:44:48;99683.78;;;-0.42;70.49
71903;BME280;59778;50.310;18.780;2023-03-01T22:00:10;99687.69;;;-0.61;71.78
71903;BME280;59778;50.310;18.780;2023-03-01T22:15:33;99688.53;;;-1.14;73.59
71903;BME280;59778;50.310;18.780;2023-03-01T22:30:54;99683.84;;;-1.23;73.65
71903;BME280;59778;50.310;18.780;2023-03-01T22:46:17;99679.41;;;-1.51;75.13
71903;BME280;59778;50.310;18.780;2023-03-01T23:01:41;99672.03;;;-2.02;76.90
71903;BME280;59778;50.310;18.780;2023-03-01T23:17:04;99674.38;;;-1.83;76.07
71903;BME280;59778;50.310;18.780;2023-03-01T23:32:27;99670.50;;;-1.92;76.93
71903;BME280;59778;50.310;18.780;2023-03-01T23:47:49;99675.91;;;-2.22;78.97
